createdAt,value
2022-12-27T00:01:10.999Z,2.92
2022-12-27T00:03:38.861Z,2.22
2022-12-27T00:06:08.728Z,6.75
2022-12-27T00:08:37.971Z,5.50
2022-12-27T00:11:07.601Z,4.05
2022-12-27T00:13:35.532Z,6.93
2022-12-27T00:16:05.545Z,4.10
2022-12-27T00:18:33.927Z,7.97
2022-12-27T00:21:03.135Z,3.28
2022-12-27T00:23:34.076Z,4.00
2022-12-27T00:26:04.516Z,4.25
2022-12-27T00:28:33.337Z,3.60
2022-12-27T00:31:02.389Z,4.22
2022-12-27T00:33:32.197Z,6.57
2022-12-27T00:36:00.845Z,5.88
2022-12-27T00:38:29.070Z,7.72
2022-12-27T00:40:57.055Z,4.00
2022-12-27T00:43:26.297Z,2.65
2022-12-27T00:45:54.309Z,4.60
2022-12-27T00:48:22.327Z,8.02
2022-12-27T00:50:50.325Z,3.85
2022-12-27T00:53:18.208Z,7.40
2022-12-27T00:55:46.717Z,5.28
2022-12-27T00:58:14.602Z,3.28
2022-12-27T01:00:43.959Z,9.80
2022-12-27T01:03:11.845Z,12.85
2022-12-27T01:05:40.464Z,10.77
2022-12-27T01:08:08.675Z,8.70
2022-12-27T01:10:36.866Z,14.43
2022-12-27T01:13:05.255Z,2.83
2022-12-27T01:15:33.121Z,3.35
2022-12-27T01:18:02.456Z,5.05
2022-12-27T01:20:30.389Z,5.63
2022-12-27T01:22:58.268Z,2.72
2022-12-27T01:25:26.158Z,6.68
2022-12-27T01:27:54.472Z,5.40
2022-12-27T01:30:22.336Z,7.38
2022-12-27T01:32:50.184Z,4.95
2022-12-27T01:35:19.412Z,3.75
2022-12-27T01:37:47.293Z,2.42
2022-12-27T01:40:15.323Z,4.90
2022-12-27T01:42:55.527Z,8.63
2022-12-27T01:45:24.502Z,5.70
2022-12-27T01:47:57.921Z,8.05
2022-12-27T01:50:32.571Z,5.40
2022-12-27T01:53:06.276Z,6.35
2022-12-27T01:55:40.159Z,9.30
2022-12-27T01:58:12.881Z,7.28
2022-12-27T02:00:44.012Z,4.07
2022-12-27T02:03:12.932Z,2.53
2022-12-27T02:05:43.270Z,3.15
2022-12-27T02:08:36.081Z,5.93
2022-12-27T02:11:05.415Z,3.88
2022-12-27T02:13:35.576Z,4.80
2022-12-27T02:16:10.294Z,7.43
2022-12-27T02:18:38.214Z,3.72
2022-12-27T02:21:32.645Z,3.85
2022-12-27T02:24:19.347Z,6.38
2022-12-27T02:26:51.943Z,6.05
2022-12-27T02:29:48.076Z,2.80
2022-12-27T02:32:20.986Z,11.43
2022-12-27T02:34:58.452Z,5.13
2022-12-27T02:37:29.243Z,3.55
2022-12-27T02:40:18.217Z,3.60
2022-12-27T02:43:05.376Z,4.75
2022-12-27T02:45:56.857Z,1.38
2022-12-27T02:48:42.319Z,3.33
2022-12-27T02:51:42.371Z,1.67
2022-12-27T02:54:29.091Z,12.00
2022-12-27T02:57:09.639Z,3.38
2022-12-27T03:00:29.152Z,2.22
2022-12-27T03:03:28.839Z,2.70
2022-12-27T03:06:40.758Z,1.63
2022-12-27T03:09:58.171Z,1.77
2022-12-27T03:12:56.762Z,5.13
2022-12-27T03:15:54.151Z,5.57
2022-12-27T03:18:31.894Z,4.43
2022-12-27T03:21:19.326Z,5.55
2022-12-27T03:24:06.340Z,3.38
2022-12-27T03:26:37.835Z,2.35
2022-12-27T03:29:25.403Z,4.65
2022-12-27T03:32:15.869Z,4.38
2022-12-27T03:34:51.300Z,2.97
2022-12-27T03:37:37.624Z,3.38
2022-12-27T03:40:12.218Z,4.95
2022-12-27T03:43:14.353Z,4.70
2022-12-27T03:46:17.371Z,2.75
2022-12-27T03:49:03.687Z,6.43
2022-12-27T03:51:38.757Z,1.70
2022-12-27T03:54:09.977Z,7.03
2022-12-27T03:56:38.817Z,5.80
2022-12-27T03:59:07.387Z,2.85
2022-12-27T04:01:35.380Z,7.07
2022-12-27T04:04:03.384Z,5.35
2022-12-27T04:06:32.592Z,6.68
2022-12-27T04:09:17.885Z,2.13
2022-12-27T04:12:03.600Z,7.28
2022-12-27T04:14:49.003Z,6.45
2022-12-27T04:17:34.640Z,4.78
2022-12-27T04:20:20.124Z,5.47
2022-12-27T04:23:07.102Z,6.90
2022-12-27T04:25:52.720Z,3.47
2022-12-27T04:28:38.248Z,4.18
2022-12-27T04:31:24.121Z,4.88
2022-12-27T04:34:09.569Z,4.85
2022-12-27T04:36:37.609Z,5.60
2022-12-27T04:39:06.932Z,6.97
2022-12-27T04:41:52.219Z,5.03
2022-12-27T04:44:37.987Z,3.42
2022-12-27T04:47:29.389Z,4.68
2022-12-27T04:50:15.807Z,8.57
2022-12-27T04:53:01.599Z,7.47
2022-12-27T04:55:31.913Z,6.55
2022-12-27T04:58:00.360Z,10.80
2022-12-27T05:00:48.384Z,5.10
2022-12-27T05:03:19.454Z,5.43
2022-12-27T05:05:49.248Z,7.15
2022-12-27T05:08:35.067Z,3.67
2022-12-27T05:11:21.943Z,6.03
2022-12-27T05:14:01.515Z,3.95
2022-12-27T05:16:31.005Z,4.28
2022-12-27T05:18:59.564Z,4.30
2022-12-27T05:21:27.629Z,5.13
2022-12-27T05:24:13.470Z,6.72
2022-12-27T05:26:42.702Z,2.95
2022-12-27T05:29:10.773Z,6.13
2022-12-27T05:31:38.646Z,6.82
2022-12-27T05:34:07.045Z,4.35
2022-12-27T05:36:34.941Z,4.30
2022-12-27T05:39:03.093Z,5.40
2022-12-27T05:41:30.955Z,6.38
2022-12-27T05:44:04.993Z,3.85
2022-12-27T05:46:35.324Z,9.13
2022-12-27T05:49:03.432Z,3.63
2022-12-27T05:51:31.300Z,1.98
2022-12-27T05:53:59.224Z,7.35
2022-12-27T05:56:27.104Z,3.53
2022-12-27T05:58:55.297Z,4.47
2022-12-27T06:01:24.523Z,7.53
2022-12-27T06:03:53.950Z,4.32
2022-12-27T06:06:21.847Z,3.53
2022-12-27T06:08:49.701Z,6.00
2022-12-27T06:11:20.274Z,9.68
2022-12-27T06:13:52.389Z,4.65
2022-12-27T06:16:22.566Z,3.85
2022-12-27T06:18:51.916Z,3.10
2022-12-27T06:21:22.270Z,3.25
2022-12-27T06:23:51.001Z,3.83
2022-12-27T06:26:21.103Z,2.78
2022-12-27T06:28:49.844Z,3.05
2022-12-27T06:31:18.677Z,6.82
2022-12-27T06:33:47.177Z,4.18
2022-12-27T06:36:18.251Z,3.80
2022-12-27T06:38:46.595Z,3.45
2022-12-27T06:41:17.332Z,2.97
2022-12-27T06:43:46.665Z,8.52
2022-12-27T06:46:18.911Z,10.35
2022-12-27T06:48:47.625Z,3.30
2022-12-27T06:51:18.820Z,4.10
2022-12-27T06:53:46.777Z,8.07
2022-12-27T06:56:16.896Z,8.10
2022-12-27T06:58:45.016Z,2.22
2022-12-27T07:01:14.621Z,8.20
2022-12-27T07:03:42.607Z,6.28
2022-12-27T07:06:12.268Z,4.07
2022-12-27T07:08:41.471Z,8.80
2022-12-27T07:11:11.133Z,2.88
2022-12-27T07:13:40.953Z,6.47
2022-12-27T07:16:10.922Z,6.70
2022-12-27T07:18:39.205Z,4.95
2022-12-27T07:21:08.246Z,7.13
2022-12-27T07:23:37.150Z,6.85
2022-12-27T07:26:08.296Z,2.95
2022-12-27T07:28:36.421Z,4.47
2022-12-27T07:31:08.182Z,7.90
2022-12-27T07:33:36.104Z,8.13
2022-12-27T07:36:04.864Z,7.97
2022-12-27T07:38:33.191Z,5.32
2022-12-27T07:41:01.593Z,19.52
2022-12-27T07:43:33.241Z,3.78
2022-12-27T07:46:05.266Z,4.75
2022-12-27T07:48:33.418Z,11.38
2022-12-27T07:51:01.620Z,6.15
2022-12-27T07:53:29.525Z,3.85
2022-12-27T07:55:57.836Z,11.02
2022-12-27T07:58:25.918Z,10.13
2022-12-27T08:00:55.205Z,7.43
2022-12-27T08:03:23.173Z,4.05
2022-12-27T08:05:53.114Z,5.65
2022-12-27T08:08:23.818Z,8.52
2022-12-27T08:10:51.721Z,6.20
2022-12-27T08:13:19.664Z,3.55
2022-12-27T08:15:47.585Z,5.80
2022-12-27T08:18:16.801Z,3.80
2022-12-27T08:20:44.777Z,5.95
2022-12-27T08:23:12.636Z,6.10
2022-12-27T08:25:46.731Z,11.00
2022-12-27T08:28:18.621Z,4.55
2022-12-27T08:30:47.596Z,7.38
2022-12-27T08:33:17.068Z,16.75
2022-12-27T08:35:54.633Z,8.68
2022-12-27T08:40:51.315Z,7.07
2022-12-27T08:43:19.375Z,8.85
2022-12-27T08:45:47.303Z,2.90
2022-12-27T08:48:18.154Z,2.58
2022-12-27T08:50:46.317Z,5.30
2022-12-27T08:53:14.190Z,3.05
2022-12-27T08:55:42.044Z,3.63
2022-12-27T08:58:16.399Z,7.90
2022-12-27T09:00:44.711Z,5.72
2022-12-27T09:03:12.724Z,6.07
2022-12-27T09:05:42.419Z,7.65
2022-12-27T09:08:10.908Z,6.50
2022-12-27T09:10:38.829Z,5.15
2022-12-27T09:13:06.720Z,5.15
2022-12-27T09:15:34.741Z,7.95
2022-12-27T09:18:03.162Z,7.68
2022-12-27T09:20:31.078Z,4.28
2022-12-27T09:23:01.347Z,6.55
2022-12-27T09:25:29.266Z,11.55
2022-12-27T09:27:57.168Z,3.47
2022-12-27T09:30:25.014Z,5.10
2022-12-27T09:32:52.851Z,5.50
2022-12-27T09:35:20.705Z,9.88
2022-12-27T09:37:48.574Z,4.53
2022-12-27T09:40:21.367Z,5.93
2022-12-27T09:43:12.636Z,2.88
2022-12-27T09:45:48.131Z,9.52
2022-12-27T09:48:27.717Z,11.30
2022-12-27T09:51:05.180Z,11.52
2022-12-27T09:53:42.805Z,12.02
2022-12-27T09:56:15.503Z,4.55
2022-12-27T09:58:49.146Z,7.95
2022-12-27T10:01:23.885Z,6.55
2022-12-27T10:03:53.275Z,6.50
2022-12-27T10:06:44.709Z,5.40
2022-12-27T10:09:31.826Z,6.75
2022-12-27T10:12:10.862Z,5.45
2022-12-27T10:14:53.314Z,9.20
2022-12-27T10:17:37.350Z,3.60
2022-12-27T10:20:18.510Z,4.43
2022-12-27T10:22:49.233Z,4.97
2022-12-27T10:25:21.593Z,5.25
2022-12-27T10:27:52.257Z,3.80
2022-12-27T10:30:22.860Z,6.25
2022-12-27T10:32:51.079Z,3.72
2022-12-27T10:35:22.494Z,4.68
2022-12-27T10:37:51.052Z,3.67
2022-12-27T10:40:23.847Z,4.40
2022-12-27T10:43:04.605Z,4.57
2022-12-27T10:45:36.189Z,6.22
2022-12-27T10:48:22.301Z,5.55
2022-12-27T10:50:55.729Z,3.67
2022-12-27T10:53:36.649Z,2.88
2022-12-27T10:56:29.103Z,5.20
2022-12-27T10:59:15.460Z,4.18
2022-12-27T11:01:44.215Z,1.40
2022-12-27T11:04:20.264Z,3.40
2022-12-27T11:06:52.886Z,6.13
2022-12-27T11:09:33.580Z,3.42
2022-12-27T11:12:30.832Z,5.25
2022-12-27T11:15:08.192Z,3.72
2022-12-27T11:17:43.330Z,14.50
2022-12-27T11:20:24.665Z,4.05
2022-12-27T11:22:57.221Z,3.33
2022-12-27T11:25:31.885Z,5.32
2022-12-27T11:28:04.521Z,5.45
2022-12-27T11:30:38.447Z,5.00
2022-12-27T11:33:24.984Z,4.82
2022-12-27T11:35:55.513Z,4.38
2022-12-27T11:38:26.921Z,6.55
2022-12-27T11:41:01.025Z,6.80
2022-12-27T11:43:31.548Z,4.05
2022-12-27T11:46:04.486Z,7.00
2022-12-27T11:48:37.141Z,5.50
2022-12-27T11:51:25.352Z,4.07
2022-12-27T11:54:30.812Z,5.50
2022-12-27T11:57:12.524Z,6.55
2022-12-27T11:59:57.189Z,3.80
2022-12-27T12:02:38.541Z,4.85
2022-12-27T12:05:46.610Z,4.30
2022-12-27T12:08:47.277Z,3.00
2022-12-27T12:11:26.060Z,7.10
2022-12-27T12:14:09.790Z,6.20
2022-12-27T12:16:58.227Z,6.45
2022-12-27T12:19:54.566Z,3.97
2022-12-27T12:22:35.702Z,6.30
2022-12-27T12:25:35.372Z,3.67
2022-12-27T12:28:56.902Z,10.00
2022-12-27T12:31:33.017Z,6.60
2022-12-27T12:34:16.753Z,5.50
2022-12-27T12:37:04.016Z,6.43
2022-12-27T12:39:51.985Z,2.97
2022-12-27T12:42:22.897Z,5.47
2022-12-27T12:45:24.780Z,3.83
2022-12-27T12:48:16.749Z,3.30
2022-12-27T12:51:04.135Z,2.28
2022-12-27T12:54:00.034Z,5.88
2022-12-27T12:56:55.124Z,7.40
2022-12-27T12:59:43.072Z,4.35
2022-12-27T13:02:36.552Z,5.35
2022-12-27T13:05:14.374Z,9.55
2022-12-27T13:07:55.468Z,6.35
2022-12-27T13:10:48.435Z,3.67
2022-12-27T13:13:22.510Z,3.17
2022-12-27T13:16:11.729Z,4.22
2022-12-27T13:18:49.991Z,3.20
2022-12-27T13:21:31.157Z,2.95
2022-12-27T13:24:08.359Z,7.32
2022-12-27T13:26:48.929Z,5.77
2022-12-27T13:29:45.488Z,6.07
2022-12-27T13:32:24.277Z,3.10
2022-12-27T13:35:06.352Z,3.63
2022-12-27T13:37:46.780Z,4.65
2022-12-27T13:40:42.306Z,4.63
2022-12-27T13:43:32.468Z,3.08
2022-12-27T13:46:21.139Z,3.45
2022-12-27T13:49:13.116Z,9.57
2022-12-27T13:51:46.251Z,3.85
2022-12-27T13:54:46.031Z,7.88
2022-12-27T13:57:26.940Z,2.80
2022-12-27T14:00:11.110Z,2.88
2022-12-27T14:03:27.771Z,3.00
2022-12-27T14:06:17.610Z,1.48
2022-12-27T14:09:29.023Z,8.63
2022-12-27T14:12:23.830Z,5.05
2022-12-27T14:14:52.732Z,10.40
2022-12-27T14:17:33.043Z,6.35
2022-12-27T14:20:15.949Z,4.13
2022-12-27T14:23:11.245Z,12.48
2022-12-27T14:26:02.677Z,4.38
2022-12-27T14:29:07.229Z,6.97
2022-12-27T14:32:16.867Z,4.53
2022-12-27T14:35:15.735Z,1.65
2022-12-27T14:38:11.867Z,3.05
2022-12-27T14:41:08.008Z,4.28
2022-12-27T14:44:06.888Z,1.60
2022-12-27T14:47:14.259Z,7.05
2022-12-27T14:50:22.125Z,3.05
2022-12-27T14:53:22.836Z,4.93
2022-12-27T14:56:03.476Z,2.83
2022-12-27T14:58:43.371Z,7.97
2022-12-27T15:01:20.690Z,3.00
2022-12-27T15:04:00.316Z,3.38
2022-12-27T15:06:48.964Z,8.07
2022-12-27T15:09:26.603Z,6.97
2022-12-27T15:12:04.553Z,3.53
2022-12-27T15:14:57.747Z,6.80
2022-12-27T15:17:40.541Z,5.13
2022-12-27T15:20:31.419Z,5.18
2022-12-27T15:23:09.330Z,4.20
2022-12-27T15:25:51.369Z,5.57
2022-12-27T15:28:30.591Z,5.07
2022-12-27T15:31:06.088Z,3.78
2022-12-27T15:33:45.485Z,12.13
2022-12-27T15:36:16.142Z,3.08
2022-12-27T15:38:53.412Z,4.13
2022-12-27T15:41:34.438Z,8.07
2022-12-27T15:44:22.390Z,5.07
2022-12-27T15:47:41.677Z,7.00
2022-12-27T15:50:26.433Z,4.80
2022-12-27T15:53:17.328Z,2.10
2022-12-27T15:56:09.861Z,5.40
2022-12-27T15:58:39.821Z,8.75
2022-12-27T16:01:26.506Z,3.95
2022-12-27T16:03:55.748Z,5.68
2022-12-27T16:06:49.925Z,4.20
2022-12-27T16:09:37.743Z,4.05
2022-12-27T16:12:10.516Z,10.77
2022-12-27T16:14:41.597Z,9.43
2022-12-27T16:17:30.833Z,9.20
2022-12-27T16:20:14.156Z,4.15
2022-12-27T16:22:44.621Z,9.73
2022-12-27T16:25:31.010Z,3.33
2022-12-27T16:28:02.622Z,6.35
2022-12-27T16:30:53.455Z,5.05
2022-12-27T16:33:34.899Z,5.55
2022-12-27T16:36:28.736Z,6.05
2022-12-27T16:39:29.522Z,4.55
2022-12-27T16:42:08.866Z,6.72
2022-12-27T16:45:04.776Z,7.38
2022-12-27T16:47:58.078Z,6.53
2022-12-27T16:50:46.621Z,9.57
2022-12-27T16:53:36.736Z,9.02
2022-12-27T16:56:21.349Z,8.25
2022-12-27T16:58:49.912Z,10.10
2022-12-27T17:01:46.935Z,13.93
2022-12-27T17:04:50.601Z,5.28
2022-12-27T17:07:51.008Z,6.70
2022-12-27T17:10:58.903Z,4.75
2022-12-27T17:13:41.107Z,4.60
2022-12-27T17:16:19.828Z,5.00
2022-12-27T17:18:52.823Z,7.63
2022-12-27T17:21:29.853Z,6.70
2022-12-27T17:24:00.889Z,8.50
2022-12-27T17:26:49.936Z,7.07
2022-12-27T17:29:38.338Z,4.22
2022-12-27T17:32:18.023Z,5.38
2022-12-27T17:34:56.541Z,7.05
2022-12-27T17:37:30.468Z,5.93
2022-12-27T17:40:11.284Z,6.13
2022-12-27T17:43:11.894Z,7.38
2022-12-27T17:45:47.758Z,7.95
2022-12-27T17:48:25.289Z,12.02
2022-12-27T17:50:55.350Z,6.82
2022-12-27T17:53:42.449Z,6.97
2022-12-27T17:56:34.219Z,8.48
2022-12-27T17:59:11.176Z,7.40
2022-12-27T18:01:45.899Z,7.43
2022-12-27T18:04:25.385Z,4.13
2022-12-27T18:06:58.075Z,14.88
2022-12-27T18:09:36.000Z,10.77
2022-12-27T18:12:05.808Z,7.80
2022-12-27T18:14:34.894Z,8.45
2022-12-27T18:17:04.470Z,12.02
2022-12-27T18:19:33.289Z,9.30
2022-12-27T18:22:03.206Z,8.77
2022-12-27T18:24:33.490Z,9.63
2022-12-27T18:27:03.826Z,7.55
2022-12-27T18:29:32.222Z,10.65
2022-12-27T18:32:05.072Z,11.00
2022-12-27T18:34:39.145Z,13.20
2022-12-27T18:37:10.944Z,10.65
2022-12-27T18:39:41.556Z,16.42
2022-12-27T18:42:18.360Z,9.20
2022-12-27T18:44:48.943Z,8.60
2022-12-27T18:47:21.738Z,13.98
2022-12-27T18:49:53.765Z,6.82
2022-12-27T18:52:26.839Z,7.43
2022-12-27T18:54:55.468Z,9.55
2022-12-27T18:57:33.209Z,8.02
2022-12-27T19:00:03.463Z,10.98
2022-12-27T19:02:36.799Z,8.95
2022-12-27T19:05:22.840Z,6.40
2022-12-27T19:07:54.118Z,9.55
2022-12-27T19:10:24.668Z,10.13
2022-12-27T19:12:53.292Z,13.13
2022-12-27T19:15:24.938Z,10.60
2022-12-27T19:17:57.526Z,14.98
2022-12-27T19:20:29.185Z,12.68
2022-12-27T19:22:58.792Z,11.02
2022-12-27T19:25:28.865Z,11.10
2022-12-27T19:27:59.318Z,10.52
2022-12-27T19:30:36.582Z,12.00
2022-12-27T19:33:10.646Z,21.85
2022-12-27T19:35:40.288Z,14.32
2022-12-27T19:38:08.181Z,18.73
2022-12-27T19:40:36.061Z,12.55
2022-12-27T19:43:04.635Z,7.32
2022-12-27T19:45:32.549Z,8.95
2022-12-27T19:48:00.470Z,14.23
2022-12-27T19:50:29.685Z,16.65
2022-12-27T19:52:57.807Z,13.02
2022-12-27T19:55:27.761Z,22.00
2022-12-27T19:57:56.293Z,19.40
2022-12-27T20:00:24.573Z,27.83
2022-12-27T20:02:53.084Z,27.00
2022-12-27T20:06:12.669Z,18.70
2022-12-27T20:08:28.916Z,23.35
2022-12-27T20:10:57.901Z,23.90
2022-12-27T20:13:27.021Z,17.33
2022-12-27T20:15:57.482Z,15.85
2022-12-27T20:18:26.253Z,15.13
2022-12-27T20:20:54.157Z,17.08
2022-12-27T20:23:23.427Z,9.38
2022-12-27T20:25:51.712Z,12.20
2022-12-27T20:28:20.107Z,8.85
2022-12-27T20:30:48.359Z,12.25
2022-12-27T20:33:16.907Z,11.23
2022-12-27T20:35:45.421Z,12.63
2022-12-27T20:38:13.390Z,13.27
2022-12-27T20:40:43.097Z,17.48
2022-12-27T20:43:10.959Z,15.52
2022-12-27T20:45:38.803Z,14.48
2022-12-27T20:48:06.890Z,12.63
2022-12-27T20:50:34.773Z,13.48
2022-12-27T20:53:02.646Z,17.48
2022-12-27T20:55:31.319Z,11.00
2022-12-27T20:58:00.601Z,16.38
2022-12-27T21:00:29.004Z,14.80
2022-12-27T21:02:57.092Z,15.48
2022-12-27T21:05:25.321Z,11.15
2022-12-27T21:07:53.164Z,26.77
2022-12-27T21:10:21.007Z,20.90
2022-12-27T21:12:48.865Z,14.02
2022-12-27T21:15:18.170Z,13.55
2022-12-27T21:17:46.035Z,12.48
2022-12-27T21:20:14.491Z,12.05
2022-12-27T21:22:42.364Z,17.17
2022-12-27T21:25:10.564Z,12.32
2022-12-27T21:27:38.446Z,11.80
2022-12-27T21:30:07.134Z,10.23
2022-12-27T21:32:36.397Z,17.40
2022-12-27T21:35:04.320Z,16.92
2022-12-27T21:37:32.183Z,15.30
2022-12-27T21:40:00.032Z,15.45
2022-12-27T21:42:27.880Z,9.90
2022-12-27T21:44:55.712Z,16.38
2022-12-27T21:47:23.591Z,15.73
2022-12-27T21:49:52.823Z,10.48
2022-12-27T21:52:20.857Z,11.45
2022-12-27T21:54:48.713Z,11.30
2022-12-27T21:57:16.833Z,14.48
2022-12-27T21:59:46.454Z,13.18
2022-12-27T22:02:14.578Z,12.85
2022-12-27T22:04:42.567Z,14.55
2022-12-27T22:07:14.507Z,17.08
2022-12-27T22:09:42.429Z,16.90
2022-12-27T22:12:10.302Z,13.57
2022-12-27T22:14:38.173Z,14.57
2022-12-27T22:17:06.199Z,13.30
2022-12-27T22:19:34.066Z,16.55
2022-12-27T22:22:01.920Z,10.10
2022-12-27T22:24:31.219Z,17.95
2022-12-27T22:26:59.072Z,10.60
2022-12-27T22:29:30.418Z,14.40
2022-12-27T22:32:02.808Z,12.90
2022-12-27T22:34:30.646Z,15.93
2022-12-27T22:36:58.521Z,13.07
2022-12-27T22:39:26.406Z,11.50
2022-12-27T22:41:55.746Z,10.95
2022-12-27T22:44:24.121Z,13.25
2022-12-27T22:47:24.189Z,8.82
2022-12-27T22:49:39.788Z,10.50
2022-12-27T22:52:07.631Z,13.10
2022-12-27T22:55:05.183Z,10.40
2022-12-27T22:57:24.647Z,14.53
2022-12-27T22:59:52.480Z,8.88
2022-12-27T23:02:20.407Z,14.77
2022-12-27T23:04:48.385Z,11.25
2022-12-27T23:07:19.952Z,13.70
2022-12-27T23:09:47.895Z,12.80
2022-12-27T23:12:15.984Z,13.32
2022-12-27T23:14:45.251Z,10.45
2022-12-27T23:17:13.134Z,8.73
2022-12-27T23:19:40.977Z,7.50
2022-12-27T23:22:08.856Z,9.73
2022-12-27T23:24:36.748Z,10.85
2022-12-27T23:27:04.754Z,8.60
2022-12-27T23:29:32.608Z,12.68
2022-12-27T23:32:01.874Z,12.68
2022-12-27T23:34:29.827Z,9.55
2022-12-27T23:36:58.032Z,8.23
2022-12-27T23:39:26.328Z,9.43
2022-12-27T23:41:54.228Z,11.18
2022-12-27T23:44:33.468Z,9.07
2022-12-27T23:47:05.199Z,7.22
2022-12-27T23:49:33.598Z,10.73
2022-12-27T23:52:01.605Z,14.13
2022-12-27T23:54:29.480Z,9.07
2022-12-27T23:56:57.681Z,9.68
2022-12-27T23:59:25.619Z,8.80
